X  Close Metar Aviation Weather Data     EBBR Brussels Airport
Temperature
19°C Temperature
18°C Dewpoint
94% Humidity



Wind
3 KM/H
2 MPH
1 M/S
2 KTS



Calm
North
Current Conditions

Clear Clear
Pressure 1012.92 (hPa) - 29.91 (inHg)
Visibility 6.2 (mile) - 10 (km)
Airport
Airport-code EBBR

Location: Brussels Airport
Distance: 14 (km)

Metar:
EBBR 120320Z VRB02KT CAVOK 19/18 Q1013 NOSIG

Time: 2020-08-12 05:20 CEST